sensor_id;sensor_type;location;lat;lon;timestamp;pressure;altitude;pressure_sealevel;temperature;humidity
75913;BME280;64592;52.168;21.040;2024-03-02T00:01:18;100081.41;;;7.40;100.00
75913;BME280;64592;52.168;21.040;2024-03-02T00:06:20;100080.63;;;7.38;100.00
75913;BME280;64592;52.168;21.040;2024-03-02T00:11:22;100072.03;;;7.33;100.00
75913;BME280;64592;52.168;21.040;2024-03-02T00:16:29;100072.44;;;7.27;100.00
75913;BME280;64592;52.168;21.040;2024-03-02T00:21:31;100078.00;;;7.24;100.00
75913;BME280;64592;52.168;21.040;2024-03-02T00:26:33;100073.28;;;7.28;100.00
75913;BME280;64592;52.168;21.040;2024-03-02T00:31:36;100070.84;;;7.25;100.00
75913;BME280;64592;52.168;21.040;2024-03-02T00:36:40;100061.69;;;7.27;100.00
75913;BME280;64592;52.168;21.040;2024-03-02T00:41:42;100067.28;;;7.24;100.00
75913;BME280;64592;52.168;21.040;2024-03-02T00:46:45;100075.44;;;7.23;100.00
75913;BME280;64592;52.168;21.040;2024-03-02T00:51:49;100068.66;;;7.17;100.00
75913;BME280;64592;52.168;21.040;2024-03-02T00:56:51;100072.56;;;7.12;100.00
75913;BME280;64592;52.168;21.040;2024-03-02T01:01:54;100061.97;;;7.10;100.00
75913;BME280;64592;52.168;21.040;2024-03-02T01:06:56;100055.00;;;7.08;100.00
75913;BME280;64592;52.168;21.040;2024-03-02T01:11:59;100060.53;;;7.05;100.00
75913;BME280;64592;52.168;21.040;2024-03-02T01:17:02;100057.13;;;7.03;100.00
75913;BME280;64592;52.168;21.040;2024-03-02T01:22:05;100050.03;;;7.01;100.00
75913;BME280;64592;52.168;21.040;2024-03-02T01:27:06;100050.81;;;7.04;100.00
75913;BME280;64592;52.168;21.040;2024-03-02T01:32:09;100053.88;;;6.97;100.00
75913;BME280;64592;52.168;21.040;2024-03-02T01:37:12;100044.97;;;6.97;100.00
75913;BME280;64592;52.168;21.040;2024-03-02T01:42:13;100044.22;;;6.95;100.00
75913;BME280;64592;52.168;21.040;2024-03-02T01:47:16;100039.06;;;6.92;100.00
75913;BME280;64592;52.168;21.040;2024-03-02T01:52:18;100039.06;;;6.92;100.00
75913;BME280;64592;52.168;21.040;2024-03-02T01:57:20;100030.56;;;6.85;100.00
75913;BME280;64592;52.168;21.040;2024-03-02T02:02:23;100027.22;;;6.82;100.00
75913;BME280;64592;52.168;21.040;2024-03-02T02:07:25;100037.66;;;6.86;100.00
75913;BME280;64592;52.168;21.040;2024-03-02T02:12:27;100041.47;;;6.82;100.00
75913;BME280;64592;52.168;21.040;2024-03-02T02:17:30;100025.63;;;6.79;100.00
75913;BME280;64592;52.168;21.040;2024-03-02T02:22:33;100027.34;;;6.80;100.00
75913;BME280;64592;52.168;21.040;2024-03-02T02:27:34;100027.53;;;6.77;100.00
75913;BME280;64592;52.168;21.040;2024-03-02T02:32:36;100027.63;;;6.76;100.00
75913;BME280;64592;52.168;21.040;2024-03-02T02:37:39;100021.41;;;6.75;100.00
75913;BME280;64592;52.168;21.040;2024-03-02T02:42:41;100017.31;;;6.70;100.00
75913;BME280;64592;52.168;21.040;2024-03-02T02:47:43;100012.16;;;6.67;100.00
75913;BME280;64592;52.168;21.040;2024-03-02T02:52:46;100021.91;;;6.68;100.00
75913;BME280;64592;52.168;21.040;2024-03-02T02:57:48;100007.00;;;6.63;100.00
75913;BME280;64592;52.168;21.040;2024-03-02T03:02:50;100014.25;;;6.61;100.00
75913;BME280;64592;52.168;21.040;2024-03-02T03:07:53;100005.59;;;6.58;100.00
75913;BME280;64592;52.168;21.040;2024-03-02T03:12:55;99990.88;;;6.51;100.00
75913;BME280;64592;52.168;21.040;2024-03-02T03:17:57;100006.19;;;6.49;100.00
75913;BME280;64592;52.168;21.040;2024-03-02T03:23:00;99999.09;;;6.48;100.00
75913;BME280;64592;52.168;21.040;2024-03-02T03:28:01;99994.78;;;6.45;100.00
75913;BME280;64592;52.168;21.040;2024-03-02T03:33:04;99983.94;;;6.34;100.00
75913;BME280;64592;52.168;21.040;2024-03-02T03:38:07;100007.53;;;6.42;100.00
75913;BME280;64592;52.168;21.040;2024-03-02T03:43:09;100000.63;;;6.38;100.00
75913;BME280;64592;52.168;21.040;2024-03-02T03:48:10;99999.91;;;6.36;100.00
75913;BME280;64592;52.168;21.040;2024-03-02T03:53:14;100000.94;;;6.33;100.00
75913;BME280;64592;52.168;21.040;2024-03-02T03:58:16;99996.84;;;6.28;100.00
75913;BME280;64592;52.168;21.040;2024-03-02T04:03:19;100001.41;;;6.26;100.00
75913;BME280;64592;52.168;21.040;2024-03-02T04:08:22;99997.97;;;6.23;100.00
75913;BME280;64592;52.168;21.040;2024-03-02T04:13:23;100002.59;;;6.21;100.00
75913;BME280;64592;52.168;21.040;2024-03-02T04:18:25;99998.38;;;6.17;100.00
75913;BME280;64592;52.168;21.040;2024-03-02T04:23:28;100009.06;;;6.17;100.00
75913;BME280;64592;52.168;21.040;2024-03-02T04:28:30;100004.69;;;6.16;100.00
75913;BME280;64592;52.168;21.040;2024-03-02T04:33:31;100002.00;;;6.16;100.00
75913;BME280;64592;52.168;21.040;2024-03-02T04:38:35;100005.06;;;6.10;100.00
75913;BME280;64592;52.168;21.040;2024-03-02T04:43:36;99995.31;;;6.09;100.00
75913;BME280;64592;52.168;21.040;2024-03-02T04:48:38;100001.06;;;6.03;100.00
75913;BME280;64592;52.168;21.040;2024-03-02T04:53:41;99992.38;;;6.00;100.00
75913;BME280;64592;52.168;21.040;2024-03-02T04:58:42;99999.53;;;5.99;100.00
75913;BME280;64592;52.168;21.040;2024-03-02T05:03:44;100000.41;;;6.00;100.00
75913;BME280;64592;52.168;21.040;2024-03-02T05:08:47;100015.59;;;5.99;100.00
75913;BME280;64592;52.168;21.040;2024-03-02T05:13:49;100011.94;;;6.00;100.00
75913;BME280;64592;52.168;21.040;2024-03-02T05:18:51;100011.09;;;6.00;100.00
75913;BME280;64592;52.168;21.040;2024-03-02T05:23:54;100023.41;;;6.02;100.00
75913;BME280;64592;52.168;21.040;2024-03-02T05:28:55;100027.81;;;6.03;100.00
75913;BME280;64592;52.168;21.040;2024-03-02T05:33:57;100028.66;;;6.04;100.00
75913;BME280;64592;52.168;21.040;2024-03-02T05:39:00;100034.03;;;6.04;100.00
75913;BME280;64592;52.168;21.040;2024-03-02T05:44:05;100035.94;;;6.02;100.00
75913;BME280;64592;52.168;21.040;2024-03-02T05:49:06;100040.25;;;6.04;100.00
75913;BME280;64592;52.168;21.040;2024-03-02T05:54:11;100035.75;;;6.05;100.00
75913;BME280;64592;52.168;21.040;2024-03-02T05:59:13;100054.38;;;6.06;100.00
75913;BME280;64592;52.168;21.040;2024-03-02T06:04:16;100057.16;;;6.05;100.00
75913;BME280;64592;52.168;21.040;2024-03-02T06:09:19;100052.56;;;6.07;100.00
75913;BME280;64592;52.168;21.040;2024-03-02T06:14:21;100056.13;;;6.07;100.00
75913;BME280;64592;52.168;21.040;2024-03-02T06:19:23;100066.59;;;6.10;100.00
75913;BME280;64592;52.168;21.040;2024-03-02T06:24:26;100057.63;;;6.11;100.00
75913;BME280;64592;52.168;21.040;2024-03-02T06:29:27;100065.38;;;6.16;100.00
75913;BME280;64592;52.168;21.040;2024-03-02T06:34:29;100067.09;;;6.17;100.00
75913;BME280;64592;52.168;21.040;2024-03-02T06:39:32;100075.97;;;6.17;100.00
75913;BME280;64592;52.168;21.040;2024-03-02T06:44:34;100075.81;;;6.20;100.00
75913;BME280;64592;52.168;21.040;2024-03-02T06:49:36;100069.38;;;6.23;100.00
75913;BME280;64592;52.168;21.040;2024-03-02T06:54:39;100074.84;;;6.21;100.00
75913;BME280;64592;52.168;21.040;2024-03-02T06:59:41;100078.28;;;6.23;100.00
75913;BME280;64592;52.168;21.040;2024-03-02T07:04:42;100083.25;;;6.30;100.00
75913;BME280;64592;52.168;21.040;2024-03-02T07:09:46;100075.97;;;6.32;100.00
75913;BME280;64592;52.168;21.040;2024-03-02T07:14:48;100067.84;;;6.33;100.00
75913;BME280;64592;52.168;21.040;2024-03-02T07:20:11;100072.16;;;6.36;100.00
75913;BME280;64592;52.168;21.040;2024-03-02T07:25:14;100083.53;;;6.39;100.00
75913;BME280;64592;52.168;21.040;2024-03-02T07:30:16;100086.88;;;6.43;100.00
75913;BME280;64592;52.168;21.040;2024-03-02T07:35:18;100085.72;;;6.47;100.00
75913;BME280;64592;52.168;21.040;2024-03-02T07:40:22;100078.47;;;6.49;100.00
75913;BME280;64592;52.168;21.040;2024-03-02T07:45:24;100081.78;;;6.52;100.00
75913;BME280;64592;52.168;21.040;2024-03-02T07:50:25;100079.97;;;6.53;100.00
75913;BME280;64592;52.168;21.040;2024-03-02T07:55:29;100092.22;;;6.57;100.00
75913;BME280;64592;52.168;21.040;2024-03-02T08:00:30;100107.34;;;6.58;100.00
75913;BME280;64592;52.168;21.040;2024-03-02T08:05:32;100110.69;;;6.61;100.00
75913;BME280;64592;52.168;21.040;2024-03-02T08:10:35;100114.78;;;6.67;100.00
75913;BME280;64592;52.168;21.040;2024-03-02T08:15:37;100105.59;;;6.71;100.00
75913;BME280;64592;52.168;21.040;2024-03-02T08:20:38;100113.47;;;6.74;100.00
75913;BME280;64592;52.168;21.040;2024-03-02T08:25:42;100103.47;;;6.76;100.00
75913;BME280;64592;52.168;21.040;2024-03-02T08:30:43;100100.72;;;6.78;100.00
75913;BME280;64592;52.168;21.040;2024-03-02T08:35:45;100107.13;;;6.75;100.00
75913;BME280;64592;52.168;21.040;2024-03-02T08:40:49;100116.47;;;6.82;100.00
75913;BME280;64592;52.168;21.040;2024-03-02T08:45:51;100122.53;;;6.86;100.00
75913;BME280;64592;52.168;21.040;2024-03-02T08:50:53;100124.91;;;6.90;100.00
75913;BME280;64592;52.168;21.040;2024-03-02T08:55:56;100122.97;;;6.92;100.00
75913;BME280;64592;52.168;21.040;2024-03-02T09:00:58;100121.84;;;6.96;100.00
75913;BME280;64592;52.168;21.040;2024-03-02T09:06:00;100127.75;;;7.01;100.00
75913;BME280;64592;52.168;21.040;2024-03-02T09:11:03;100124.13;;;7.03;100.00
75913;BME280;64592;52.168;21.040;2024-03-02T09:16:05;100125.72;;;7.05;100.00
75913;BME280;64592;52.168;21.040;2024-03-02T09:21:11;100125.53;;;7.08;100.00
75913;BME280;64592;52.168;21.040;2024-03-02T09:26:14;100129.00;;;7.10;100.00
75913;BME280;64592;52.168;21.040;2024-03-02T09:31:15;100124.28;;;7.14;100.00
75913;BME280;64592;52.168;21.040;2024-03-02T09:36:17;100125.81;;;7.18;100.00
75913;BME280;64592;52.168;21.040;2024-03-02T09:41:21;100120.22;;;7.21;100.00
75913;BME280;64592;52.168;21.040;2024-03-02T09:46:22;100113.81;;;7.23;100.00
75913;BME280;64592;52.168;21.040;2024-03-02T09:51:24;100118.13;;;7.26;100.00
75913;BME280;64592;52.168;21.040;2024-03-02T09:56:27;100129.31;;;7.32;100.00
75913;BME280;64592;52.168;21.040;2024-03-02T10:01:29;100137.03;;;7.37;100.00
75913;BME280;64592;52.168;21.040;2024-03-02T10:06:31;100117.09;;;7.41;100.00
75913;BME280;64592;52.168;21.040;2024-03-02T10:11:35;100115.09;;;7.45;100.00
75913;BME280;64592;52.168;21.040;2024-03-02T10:16:40;100110.16;;;7.51;100.00
75913;BME280;64592;52.168;21.040;2024-03-02T10:21:43;100101.69;;;7.57;100.00
75913;BME280;64592;52.168;21.040;2024-03-02T10:26:46;100099.69;;;7.61;100.00
75913;BME280;64592;52.168;21.040;2024-03-02T10:31:48;100106.25;;;7.69;100.00
75913;BME280;64592;52.168;21.040;2024-03-02T10:36:50;100104.88;;;7.76;100.00
75913;BME280;64592;52.168;21.040;2024-03-02T10:41:55;100090.72;;;7.87;100.00
75913;BME280;64592;52.168;21.040;2024-03-02T10:47:00;100087.41;;;7.96;100.00
75913;BME280;64592;52.168;21.040;2024-03-02T10:52:03;100095.69;;;8.06;100.00
75913;BME280;64592;52.168;21.040;2024-03-02T10:57:07;100090.66;;;8.14;100.00
75913;BME280;64592;52.168;21.040;2024-03-02T11:02:12;100083.75;;;8.23;100.00
75913;BME280;64592;52.168;21.040;2024-03-02T11:07:14;100089.56;;;8.29;100.00
75913;BME280;64592;52.168;21.040;2024-03-02T11:12:19;100075.75;;;8.35;100.00
75913;BME280;64592;52.168;21.040;2024-03-02T11:17:24;100081.53;;;8.42;100.00
75913;BME280;64592;52.168;21.040;2024-03-02T11:22:27;100077.53;;;8.47;100.00
75913;BME280;64592;52.168;21.040;2024-03-02T11:28:01;100077.97;;;8.54;100.00
75913;BME280;64592;52.168;21.040;2024-03-02T11:33:04;100069.25;;;8.63;100.00
75913;BME280;64592;52.168;21.040;2024-03-02T11:38:09;100071.50;;;8.69;100.00
75913;BME280;64592;52.168;21.040;2024-03-02T11:43:12;100048.47;;;8.78;100.00
75913;BME280;64592;52.168;21.040;2024-03-02T11:48:14;100047.91;;;8.85;100.00
75913;BME280;64592;52.168;21.040;2024-03-02T11:53:17;100048.22;;;8.93;100.00
75913;BME280;64592;52.168;21.040;2024-03-02T11:58:21;100046.31;;;9.07;100.00
75913;BME280;64592;52.168;21.040;2024-03-02T12:03:25;100046.16;;;9.21;100.00
75913;BME280;64592;52.168;21.040;2024-03-02T12:08:27;100050.50;;;9.34;100.00
75913;BME280;64592;52.168;21.040;2024-03-02T12:13:30;100048.81;;;9.45;100.00
75913;BME280;64592;52.168;21.040;2024-03-02T12:18:33;100056.22;;;9.54;100.00
75913;BME280;64592;52.168;21.040;2024-03-02T12:23:36;100056.72;;;9.59;100.00
75913;BME280;64592;52.168;21.040;2024-03-02T12:28:39;100061.72;;;9.63;100.00
75913;BME280;64592;52.168;21.040;2024-03-02T12:33:41;100058.81;;;9.66;100.00
75913;BME280;64592;52.168;21.040;2024-03-02T12:38:43;100060.44;;;9.69;100.00
75913;BME280;64592;52.168;21.040;2024-03-02T12:43:46;100057.47;;;9.72;100.00
75913;BME280;64592;52.168;21.040;2024-03-02T12:48:48;100054.31;;;9.78;100.00
75913;BME280;64592;52.168;21.040;2024-03-02T12:53:53;100051.41;;;9.81;100.00
75913;BME280;64592;52.168;21.040;2024-03-02T12:58:58;100060.97;;;9.85;100.00
75913;BME280;64592;52.168;21.040;2024-03-02T13:04:00;100049.19;;;9.86;100.00
75913;BME280;64592;52.168;21.040;2024-03-02T13:09:02;100058.78;;;9.90;100.00
75913;BME280;64592;52.168;21.040;2024-03-02T13:14:06;100057.78;;;9.91;100.00
75913;BME280;64592;52.168;21.040;2024-03-02T13:19:08;100059.50;;;9.92;100.00
75913;BME280;64592;52.168;21.040;2024-03-02T13:24:09;100050.56;;;9.92;100.00
75913;BME280;64592;52.168;21.040;2024-03-02T13:29:12;100057.78;;;9.91;100.00
75913;BME280;64592;52.168;21.040;2024-03-02T13:34:14;100063.66;;;9.85;100.00
75913;BME280;64592;52.168;21.040;2024-03-02T13:39:16;100065.81;;;9.80;100.00
75913;BME280;64592;52.168;21.040;2024-03-02T13:44:19;100063.38;;;9.77;100.00
75913;BME280;64592;52.168;21.040;2024-03-02T13:49:22;100052.97;;;9.72;100.00
75913;BME280;64592;52.168;21.040;2024-03-02T13:54:23;100052.34;;;9.69;100.00
75913;BME280;64592;52.168;21.040;2024-03-02T13:59:28;100054.78;;;9.61;100.00
75913;BME280;64592;52.168;21.040;2024-03-02T14:04:30;100067.72;;;9.56;100.00
75913;BME280;64592;52.168;21.040;2024-03-02T14:09:33;100063.75;;;9.49;100.00
75913;BME280;64592;52.168;21.040;2024-03-02T14:14:37;100065.19;;;9.42;100.00
75913;BME280;64592;52.168;21.040;2024-03-02T14:19:38;100065.66;;;9.35;100.00
75913;BME280;64592;52.168;21.040;2024-03-02T14:24:40;100065.16;;;9.30;100.00
75913;BME280;64592;52.168;21.040;2024-03-02T14:29:44;100073.44;;;9.27;100.00
75913;BME280;64592;52.168;21.040;2024-03-02T14:34:46;100074.88;;;9.20;100.00
75913;BME280;64592;52.168;21.040;2024-03-02T14:39:48;100070.91;;;9.13;100.00
75913;BME280;64592;52.168;21.040;2024-03-02T14:44:52;100063.31;;;9.07;100.00
75913;BME280;64592;52.168;21.040;2024-03-02T14:49:53;100070.00;;;9.02;100.00
75913;BME280;64592;52.168;21.040;2024-03-02T14:54:55;100065.94;;;8.96;100.00
75913;BME280;64592;52.168;21.040;2024-03-02T14:59:58;100060.03;;;8.91;100.00
75913;BME280;64592;52.168;21.040;2024-03-02T15:05:00;100058.56;;;8.87;100.00
75913;BME280;64592;52.168;21.040;2024-03-02T15:10:02;100059.53;;;8.86;100.00
75913;BME280;64592;52.168;21.040;2024-03-02T15:15:06;100063.38;;;8.82;100.00
75913;BME280;64592;52.168;21.040;2024-03-02T15:20:11;100064.59;;;8.78;100.00
75913;BME280;64592;52.168;21.040;2024-03-02T15:25:13;100059.44;;;8.75;100.00
75913;BME280;64592;52.168;21.040;2024-03-02T15:30:17;100066.75;;;8.73;100.00
75913;BME280;64592;52.168;21.040;2024-03-02T15:35:19;100059.00;;;8.68;100.00
75913;BME280;64592;52.168;21.040;2024-03-02T15:40:21;100068.91;;;8.68;100.00
75913;BME280;64592;52.168;21.040;2024-03-02T15:45:24;100061.09;;;8.65;100.00
75913;BME280;64592;52.168;21.040;2024-03-02T15:50:33;100061.19;;;8.63;100.00
75913;BME280;64592;52.168;21.040;2024-03-02T15:55:36;100057.03;;;8.59;100.00
75913;BME280;64592;52.168;21.040;2024-03-02T16:00:41;100053.47;;;8.59;100.00
75913;BME280;64592;52.168;21.040;2024-03-02T16:05:43;100068.06;;;8.54;100.00
75913;BME280;64592;52.168;21.040;2024-03-02T16:10:48;100062.09;;;8.51;100.00
75913;BME280;64592;52.168;21.040;2024-03-02T16:15:52;100065.09;;;8.46;100.00
75913;BME280;64592;52.168;21.040;2024-03-02T16:20:54;100068.97;;;8.42;100.00
75913;BME280;64592;52.168;21.040;2024-03-02T16:25:56;100077.22;;;8.39;100.00
75913;BME280;64592;52.168;21.040;2024-03-02T16:30:59;100069.50;;;8.35;100.00
75913;BME280;64592;52.168;21.040;2024-03-02T16:36:00;100073.25;;;8.32;100.00
75913;BME280;64592;52.168;21.040;2024-03-02T16:41:02;100073.47;;;8.29;100.00
75913;BME280;64592;52.168;21.040;2024-03-02T16:46:06;100075.38;;;8.27;100.00
75913;BME280;64592;52.168;21.040;2024-03-02T16:51:08;100084.41;;;8.26;100.00
75913;BME280;64592;52.168;21.040;2024-03-02T16:56:09;100088.28;;;8.22;100.00
75913;BME280;64592;52.168;21.040;2024-03-02T17:01:12;100097.31;;;8.21;100.00
75913;BME280;64592;52.168;21.040;2024-03-02T17:06:14;100097.41;;;8.19;100.00
75913;BME280;64592;52.168;21.040;2024-03-02T17:11:16;100091.28;;;8.17;100.00
75913;BME280;64592;52.168;21.040;2024-03-02T17:16:20;100090.50;;;8.15;100.00
75913;BME280;64592;52.168;21.040;2024-03-02T17:21:21;100086.25;;;8.13;100.00
75913;BME280;64592;52.168;21.040;2024-03-02T17:26:23;100077.44;;;8.11;100.00
75913;BME280;64592;52.168;21.040;2024-03-02T17:31:26;100077.53;;;8.09;100.00
75913;BME280;64592;52.168;21.040;2024-03-02T17:36:28;100083.00;;;8.08;100.00
75913;BME280;64592;52.168;21.040;2024-03-02T17:41:29;100082.25;;;8.06;100.00
75913;BME280;64592;52.168;21.040;2024-03-02T17:46:32;100076.91;;;8.06;100.00
75913;BME280;64592;52.168;21.040;2024-03-02T17:51:34;100084.94;;;8.06;100.00
75913;BME280;64592;52.168;21.040;2024-03-02T17:56:36;100088.69;;;8.03;100.00
75913;BME280;64592;52.168;21.040;2024-03-02T18:01:39;100092.25;;;8.04;100.00
75913;BME280;64592;52.168;21.040;2024-03-02T18:06:41;100097.63;;;8.04;100.00
75913;BME280;64592;52.168;21.040;2024-03-02T18:11:42;100096.75;;;8.03;100.00
75913;BME280;64592;52.168;21.040;2024-03-02T18:16:46;100093.19;;;8.03;100.00
75913;BME280;64592;52.168;21.040;2024-03-02T18:21:48;100087.72;;;8.04;100.00
75913;BME280;64592;52.168;21.040;2024-03-02T18:26:49;100094.94;;;8.04;100.00
75913;BME280;64592;52.168;21.040;2024-03-02T18:31:52;100094.16;;;8.02;100.00
75913;BME280;64592;52.168;21.040;2024-03-02T18:36:54;100096.84;;;8.02;100.00
75913;BME280;64592;52.168;21.040;2024-03-02T18:41:56;100094.25;;;8.00;100.00
75913;BME280;64592;52.168;21.040;2024-03-02T18:46:59;100080.22;;;7.97;100.00
75913;BME280;64592;52.168;21.040;2024-03-02T18:52:01;100096.84;;;8.02;100.00
75913;BME280;64592;52.168;21.040;2024-03-02T18:57:03;100095.03;;;8.02;100.00
75913;BME280;64592;52.168;21.040;2024-03-02T19:02:06;100097.06;;;7.99;100.00
75913;BME280;64592;52.168;21.040;2024-03-02T19:07:07;100087.19;;;7.99;100.00
75913;BME280;64592;52.168;21.040;2024-03-02T19:12:10;100086.44;;;7.97;100.00
75913;BME280;64592;52.168;21.040;2024-03-02T19:17:13;100098.13;;;7.96;100.00
75913;BME280;64592;52.168;21.040;2024-03-02T19:22:15;100098.34;;;7.93;100.00
75913;BME280;64592;52.168;21.040;2024-03-02T19:27:17;100096.50;;;7.94;100.00
75913;BME280;64592;52.168;21.040;2024-03-02T19:32:20;100098.47;;;7.92;100.00
75913;BME280;64592;52.168;21.040;2024-03-02T19:37:23;100091.38;;;7.91;100.00
75913;BME280;64592;52.168;21.040;2024-03-02T19:42:25;100087.94;;;7.89;100.00
75913;BME280;64592;52.168;21.040;2024-03-02T19:47:29;100088.03;;;7.87;100.00
75913;BME280;64592;52.168;21.040;2024-03-02T19:52:32;100084.38;;;7.88;100.00
75913;BME280;64592;52.168;21.040;2024-03-02T19:57:34;100090.63;;;7.89;100.00
75913;BME280;64592;52.168;21.040;2024-03-02T20:02:42;100086.22;;;7.88;100.00
75913;BME280;64592;52.168;21.040;2024-03-02T20:07:44;100088.88;;;7.88;100.00
75913;BME280;64592;52.168;21.040;2024-03-02T20:12:45;100087.41;;;7.84;100.00
75913;BME280;64592;52.168;21.040;2024-03-02T20:17:49;100082.88;;;7.84;100.00
75913;BME280;64592;52.168;21.040;2024-03-02T20:22:51;100088.34;;;7.83;100.00
75913;BME280;64592;52.168;21.040;2024-03-02T20:27:53;100091.22;;;7.79;100.00
75913;BME280;64592;52.168;21.040;2024-03-02T20:32:56;100092.09;;;7.80;100.00
75913;BME280;64592;52.168;21.040;2024-03-02T20:37:58;100091.22;;;7.79;100.00
75913;BME280;64592;52.168;21.040;2024-03-02T20:43:00;100082.31;;;7.79;100.00
75913;BME280;64592;52.168;21.040;2024-03-02T20:48:05;100083.19;;;7.79;100.00
75913;BME280;64592;52.168;21.040;2024-03-02T20:53:08;100088.69;;;7.78;100.00
75913;BME280;64592;52.168;21.040;2024-03-02T20:58:10;100080.72;;;7.76;100.00
75913;BME280;64592;52.168;21.040;2024-03-02T21:03:13;100079.00;;;7.75;100.00
75913;BME280;64592;52.168;21.040;2024-03-02T21:08:14;100077.28;;;7.74;100.00
75913;BME280;64592;52.168;21.040;2024-03-02T21:13:16;100082.66;;;7.74;100.00
75913;BME280;64592;52.168;21.040;2024-03-02T21:18:19;100076.31;;;7.75;100.00
75913;BME280;64592;52.168;21.040;2024-03-02T21:23:21;100071.81;;;7.76;100.00
75913;BME280;64592;52.168;21.040;2024-03-02T21:28:22;100075.38;;;7.76;100.00
75913;BME280;64592;52.168;21.040;2024-03-02T21:33:27;100075.38;;;7.76;100.00
75913;BME280;64592;52.168;21.040;2024-03-02T21:38:29;100065.50;;;7.77;100.00
75913;BME280;64592;52.168;21.040;2024-03-02T21:43:31;100071.81;;;7.76;100.00
75913;BME280;64592;52.168;21.040;2024-03-02T21:48:35;100066.56;;;7.74;100.00
75913;BME280;64592;52.168;21.040;2024-03-02T21:53:36;100069.22;;;7.74;100.00
75913;BME280;64592;52.168;21.040;2024-03-02T21:58:38;100067.41;;;7.75;100.00
75913;BME280;64592;52.168;21.040;2024-03-02T22:03:41;100060.22;;;7.75;100.00
75913;BME280;64592;52.168;21.040;2024-03-02T22:08:45;100061.19;;;7.74;100.00
75913;BME280;64592;52.168;21.040;2024-03-02T22:13:47;100064.72;;;7.75;100.00
75913;BME280;64592;52.168;21.040;2024-03-02T22:18:50;100048.97;;;7.70;100.00
75913;BME280;64592;52.168;21.040;2024-03-02T22:23:52;100057.44;;;7.77;100.00
75913;BME280;64592;52.168;21.040;2024-03-02T22:28:54;100050.34;;;7.76;100.00
75913;BME280;64592;52.168;21.040;2024-03-02T22:33:57;100049.59;;;7.74;100.00
75913;BME280;64592;52.168;21.040;2024-03-02T22:38:59;100048.53;;;7.76;100.00
75913;BME280;64592;52.168;21.040;2024-03-02T22:44:01;100053.91;;;7.76;100.00
75913;BME280;64592;52.168;21.040;2024-03-02T22:49:04;100048.63;;;7.75;100.00
75913;BME280;64592;52.168;21.040;2024-03-02T22:54:06;100059.25;;;7.76;100.00
75913;BME280;64592;52.168;21.040;2024-03-02T22:59:07;100058.41;;;7.76;100.00
75913;BME280;64592;52.168;21.040;2024-03-02T23:04:10;100061.09;;;7.76;100.00
75913;BME280;64592;52.168;21.040;2024-03-02T23:09:12;100053.91;;;7.76;100.00
75913;BME280;64592;52.168;21.040;2024-03-02T23:14:14;100052.94;;;7.77;100.00
75913;BME280;64592;52.168;21.040;2024-03-02T23:19:17;100048.53;;;7.76;100.00
75913;BME280;64592;52.168;21.040;2024-03-02T23:24:20;100047.66;;;7.76;100.00
75913;BME280;64592;52.168;21.040;2024-03-02T23:29:22;100053.03;;;7.76;100.00
75913;BME280;64592;52.168;21.040;2024-03-02T23:34:25;100059.25;;;7.76;100.00
75913;BME280;64592;52.168;21.040;2024-03-02T23:39:27;100057.66;;;7.74;100.00
75913;BME280;64592;52.168;21.040;2024-03-02T23:45:08;100051.31;;;7.75;100.00
75913;BME280;64592;52.168;21.040;2024-03-02T23:50:11;100048.72;;;7.73;100.00
75913;BME280;64592;52.168;21.040;2024-03-02T23:55:13;100045.09;;;7.74;100.00
